sensor_id;sensor_type;location;lat;lon;timestamp;P1;durP1;ratioP1;P2;durP2;ratioP2
43670;SDS011;29267;50.906;7.248;2022-08-21T00:00:07;11.23;;;5.80;;
43670;SDS011;29267;50.906;7.248;2022-08-21T00:02:36;11.55;;;6.22;;
43670;SDS011;29267;50.906;7.248;2022-08-21T00:05:03;8.90;;;5.70;;
43670;SDS011;29267;50.906;7.248;2022-08-21T00:07:29;9.52;;;5.38;;
43670;SDS011;29267;50.906;7.248;2022-08-21T00:09:55;9.48;;;5.90;;
43670;SDS011;29267;50.906;7.248;2022-08-21T00:12:21;10.27;;;5.53;;
43670;SDS011;29267;50.906;7.248;2022-08-21T00:14:47;10.32;;;5.55;;
43670;SDS011;29267;50.906;7.248;2022-08-21T00:17:13;8.95;;;6.20;;
43670;SDS011;29267;50.906;7.248;2022-08-21T00:19:39;10.35;;;5.57;;
43670;SDS011;29267;50.906;7.248;2022-08-21T00:22:05;8.85;;;5.50;;
43670;SDS011;29267;50.906;7.248;2022-08-21T00:24:31;8.60;;;5.63;;
43670;SDS011;29267;50.906;7.248;2022-08-21T00:26:56;13.25;;;6.65;;
43670;SDS011;29267;50.906;7.248;2022-08-21T00:29:23;17.02;;;7.13;;
43670;SDS011;29267;50.906;7.248;2022-08-21T00:31:49;11.93;;;6.57;;
43670;SDS011;29267;50.906;7.248;2022-08-21T00:34:15;10.65;;;6.43;;
43670;SDS011;29267;50.906;7.248;2022-08-21T00:36:41;14.82;;;6.90;;
43670;SDS011;29267;50.906;7.248;2022-08-21T00:39:07;9.82;;;5.78;;
43670;SDS011;29267;50.906;7.248;2022-08-21T00:41:34;14.50;;;6.38;;
43670;SDS011;29267;50.906;7.248;2022-08-21T00:44:02;9.82;;;6.10;;
43670;SDS011;29267;50.906;7.248;2022-08-21T00:46:29;7.43;;;5.63;;
43670;SDS011;29267;50.906;7.248;2022-08-21T00:48:55;9.60;;;6.03;;
43670;SDS011;29267;50.906;7.248;2022-08-21T00:51:55;9.57;;;6.28;;
43670;SDS011;29267;50.906;7.248;2022-08-21T00:54:19;15.95;;;6.28;;
43670;SDS011;29267;50.906;7.248;2022-08-21T00:56:50;10.88;;;5.80;;
43670;SDS011;29267;50.906;7.248;2022-08-21T00:59:21;10.68;;;5.93;;
43670;SDS011;29267;50.906;7.248;2022-08-21T01:01:48;11.48;;;6.00;;
43670;SDS011;29267;50.906;7.248;2022-08-21T01:04:14;12.82;;;5.88;;
43670;SDS011;29267;50.906;7.248;2022-08-21T01:06:41;10.32;;;5.82;;
43670;SDS011;29267;50.906;7.248;2022-08-21T01:09:07;8.68;;;6.10;;
43670;SDS011;29267;50.906;7.248;2022-08-21T01:11:34;10.15;;;6.38;;
43670;SDS011;29267;50.906;7.248;2022-08-21T01:14:01;10.18;;;6.85;;
43670;SDS011;29267;50.906;7.248;2022-08-21T01:16:27;10.30;;;5.72;;
43670;SDS011;29267;50.906;7.248;2022-08-21T01:18:53;11.07;;;6.00;;
43670;SDS011;29267;50.906;7.248;2022-08-21T01:21:24;9.50;;;6.43;;
43670;SDS011;29267;50.906;7.248;2022-08-21T01:23:53;13.02;;;6.55;;
43670;SDS011;29267;50.906;7.248;2022-08-21T01:26:21;10.95;;;5.43;;
43670;SDS011;29267;50.906;7.248;2022-08-21T01:28:52;13.90;;;6.57;;
43670;SDS011;29267;50.906;7.248;2022-08-21T01:31:25;11.68;;;6.63;;
43670;SDS011;29267;50.906;7.248;2022-08-21T01:33:54;12.52;;;6.05;;
43670;SDS011;29267;50.906;7.248;2022-08-21T01:36:21;14.23;;;6.40;;
43670;SDS011;29267;50.906;7.248;2022-08-21T01:38:47;10.43;;;5.82;;
43670;SDS011;29267;50.906;7.248;2022-08-21T01:41:13;11.80;;;6.22;;
43670;SDS011;29267;50.906;7.248;2022-08-21T01:43:40;9.15;;;6.32;;
43670;SDS011;29267;50.906;7.248;2022-08-21T01:46:07;12.40;;;6.13;;
43670;SDS011;29267;50.906;7.248;2022-08-21T01:48:34;14.73;;;6.43;;
43670;SDS011;29267;50.906;7.248;2022-08-21T01:51:00;9.43;;;6.82;;
43670;SDS011;29267;50.906;7.248;2022-08-21T01:53:26;11.05;;;6.55;;
43670;SDS011;29267;50.906;7.248;2022-08-21T01:55:52;10.15;;;6.38;;
43670;SDS011;29267;50.906;7.248;2022-08-21T01:58:18;11.55;;;6.43;;
43670;SDS011;29267;50.906;7.248;2022-08-21T02:00:44;11.38;;;7.05;;
43670;SDS011;29267;50.906;7.248;2022-08-21T02:03:09;11.43;;;6.50;;
43670;SDS011;29267;50.906;7.248;2022-08-21T02:05:35;12.70;;;6.90;;
43670;SDS011;29267;50.906;7.248;2022-08-21T02:08:01;8.68;;;5.15;;
43670;SDS011;29267;50.906;7.248;2022-08-21T02:10:29;7.65;;;5.80;;
43670;SDS011;29267;50.906;7.248;2022-08-21T02:12:57;8.75;;;6.25;;
43670;SDS011;29267;50.906;7.248;2022-08-21T02:15:24;13.10;;;6.18;;
43670;SDS011;29267;50.906;7.248;2022-08-21T02:17:52;11.43;;;5.85;;
43670;SDS011;29267;50.906;7.248;2022-08-21T02:20:22;11.20;;;6.53;;
43670;SDS011;29267;50.906;7.248;2022-08-21T02:23:02;14.32;;;6.45;;
43670;SDS011;29267;50.906;7.248;2022-08-21T02:25:29;16.17;;;7.38;;
43670;SDS011;29267;50.906;7.248;2022-08-21T02:27:55;15.80;;;7.18;;
43670;SDS011;29267;50.906;7.248;2022-08-21T02:30:28;15.05;;;7.40;;
43670;SDS011;29267;50.906;7.248;2022-08-21T02:32:56;12.57;;;6.47;;
43670;SDS011;29267;50.906;7.248;2022-08-21T02:35:23;11.73;;;6.60;;
43670;SDS011;29267;50.906;7.248;2022-08-21T02:40:18;13.40;;;6.75;;
43670;SDS011;29267;50.906;7.248;2022-08-21T02:42:46;9.70;;;6.97;;
43670;SDS011;29267;50.906;7.248;2022-08-21T02:45:12;8.43;;;6.00;;
43670;SDS011;29267;50.906;7.248;2022-08-21T02:47:39;12.32;;;8.13;;
43670;SDS011;29267;50.906;7.248;2022-08-21T02:50:06;10.88;;;6.75;;
43670;SDS011;29267;50.906;7.248;2022-08-21T02:52:32;9.82;;;6.60;;
43670;SDS011;29267;50.906;7.248;2022-08-21T02:54:59;10.30;;;6.75;;
43670;SDS011;29267;50.906;7.248;2022-08-21T02:57:25;12.20;;;7.05;;
43670;SDS011;29267;50.906;7.248;2022-08-21T02:59:51;14.13;;;7.13;;
43670;SDS011;29267;50.906;7.248;2022-08-21T03:02:17;13.00;;;7.60;;
43670;SDS011;29267;50.906;7.248;2022-08-21T03:04:42;12.63;;;6.43;;
43670;SDS011;29267;50.906;7.248;2022-08-21T03:07:08;9.23;;;6.10;;
43670;SDS011;29267;50.906;7.248;2022-08-21T03:09:34;12.38;;;7.18;;
43670;SDS011;29267;50.906;7.248;2022-08-21T03:12:00;9.43;;;6.70;;
43670;SDS011;29267;50.906;7.248;2022-08-21T03:14:26;10.23;;;7.30;;
43670;SDS011;29267;50.906;7.248;2022-08-21T03:16:52;12.07;;;6.65;;
43670;SDS011;29267;50.906;7.248;2022-08-21T03:19:18;14.43;;;6.93;;
43670;SDS011;29267;50.906;7.248;2022-08-21T03:21:43;11.85;;;6.95;;
43670;SDS011;29267;50.906;7.248;2022-08-21T03:24:09;11.65;;;6.40;;
43670;SDS011;29267;50.906;7.248;2022-08-21T03:26:35;14.00;;;6.72;;
43670;SDS011;29267;50.906;7.248;2022-08-21T03:29:04;11.48;;;6.50;;
43670;SDS011;29267;50.906;7.248;2022-08-21T03:31:32;12.02;;;6.93;;
43670;SDS011;29267;50.906;7.248;2022-08-21T03:33:58;13.30;;;8.48;;
43670;SDS011;29267;50.906;7.248;2022-08-21T03:36:24;14.30;;;8.60;;
43670;SDS011;29267;50.906;7.248;2022-08-21T03:38:50;14.63;;;7.82;;
43670;SDS011;29267;50.906;7.248;2022-08-21T03:41:16;14.60;;;8.13;;
43670;SDS011;29267;50.906;7.248;2022-08-21T03:43:42;13.10;;;7.40;;
43670;SDS011;29267;50.906;7.248;2022-08-21T03:46:07;12.38;;;7.70;;
43670;SDS011;29267;50.906;7.248;2022-08-21T03:48:34;14.20;;;7.75;;
43670;SDS011;29267;50.906;7.248;2022-08-21T03:51:01;16.65;;;8.23;;
43670;SDS011;29267;50.906;7.248;2022-08-21T03:53:28;12.38;;;7.15;;
43670;SDS011;29267;50.906;7.248;2022-08-21T03:55:55;15.05;;;7.88;;
43670;SDS011;29267;50.906;7.248;2022-08-21T03:58:22;12.85;;;7.55;;
43670;SDS011;29267;50.906;7.248;2022-08-21T04:00:52;14.18;;;7.78;;
43670;SDS011;29267;50.906;7.248;2022-08-21T04:03:20;17.02;;;8.52;;
43670;SDS011;29267;50.906;7.248;2022-08-21T04:05:46;13.18;;;7.93;;
43670;SDS011;29267;50.906;7.248;2022-08-21T04:08:12;12.40;;;8.15;;
43670;SDS011;29267;50.906;7.248;2022-08-21T04:10:43;14.07;;;8.20;;
43670;SDS011;29267;50.906;7.248;2022-08-21T04:13:11;14.20;;;8.30;;
43670;SDS011;29267;50.906;7.248;2022-08-21T04:15:37;12.25;;;7.75;;
43670;SDS011;29267;50.906;7.248;2022-08-21T04:18:04;16.75;;;9.43;;
43670;SDS011;29267;50.906;7.248;2022-08-21T04:20:30;18.30;;;8.55;;
43670;SDS011;29267;50.906;7.248;2022-08-21T04:22:56;14.43;;;8.25;;
43670;SDS011;29267;50.906;7.248;2022-08-21T04:25:22;11.10;;;7.43;;
43670;SDS011;29267;50.906;7.248;2022-08-21T04:27:50;17.88;;;9.13;;
43670;SDS011;29267;50.906;7.248;2022-08-21T04:30:16;15.30;;;8.18;;
43670;SDS011;29267;50.906;7.248;2022-08-21T04:32:49;15.98;;;9.10;;
43670;SDS011;29267;50.906;7.248;2022-08-21T04:35:18;20.90;;;8.25;;
43670;SDS011;29267;50.906;7.248;2022-08-21T04:37:47;11.45;;;7.78;;
43670;SDS011;29267;50.906;7.248;2022-08-21T04:40:13;14.95;;;7.75;;
43670;SDS011;29267;50.906;7.248;2022-08-21T04:42:44;13.43;;;8.10;;
43670;SDS011;29267;50.906;7.248;2022-08-21T04:45:26;16.08;;;8.10;;
43670;SDS011;29267;50.906;7.248;2022-08-21T04:47:59;12.07;;;7.78;;
43670;SDS011;29267;50.906;7.248;2022-08-21T04:50:52;16.20;;;8.98;;
43670;SDS011;29267;50.906;7.248;2022-08-21T04:53:22;14.38;;;7.55;;
43670;SDS011;29267;50.906;7.248;2022-08-21T04:55:51;11.80;;;7.45;;
43670;SDS011;29267;50.906;7.248;2022-08-21T04:58:20;10.70;;;7.38;;
43670;SDS011;29267;50.906;7.248;2022-08-21T05:00:47;13.35;;;7.60;;
43670;SDS011;29267;50.906;7.248;2022-08-21T05:03:13;13.48;;;7.70;;
43670;SDS011;29267;50.906;7.248;2022-08-21T05:05:41;10.95;;;8.18;;
43670;SDS011;29267;50.906;7.248;2022-08-21T05:08:08;14.50;;;7.18;;
43670;SDS011;29267;50.906;7.248;2022-08-21T05:10:38;12.93;;;7.63;;
43670;SDS011;29267;50.906;7.248;2022-08-21T05:13:05;12.18;;;6.93;;
43670;SDS011;29267;50.906;7.248;2022-08-21T05:15:32;15.18;;;8.30;;
43670;SDS011;29267;50.906;7.248;2022-08-21T05:17:57;15.25;;;7.65;;
43670;SDS011;29267;50.906;7.248;2022-08-21T05:20:23;13.00;;;7.95;;
43670;SDS011;29267;50.906;7.248;2022-08-21T05:22:49;12.60;;;8.57;;
43670;SDS011;29267;50.906;7.248;2022-08-21T05:25:15;13.50;;;7.97;;
43670;SDS011;29267;50.906;7.248;2022-08-21T05:27:42;12.15;;;7.43;;
43670;SDS011;29267;50.906;7.248;2022-08-21T05:30:08;13.23;;;7.55;;
43670;SDS011;29267;50.906;7.248;2022-08-21T05:32:35;14.70;;;8.75;;
43670;SDS011;29267;50.906;7.248;2022-08-21T05:35:02;15.40;;;8.15;;
43670;SDS011;29267;50.906;7.248;2022-08-21T05:37:29;13.35;;;7.75;;
43670;SDS011;29267;50.906;7.248;2022-08-21T05:39:55;15.27;;;8.30;;
43670;SDS011;29267;50.906;7.248;2022-08-21T05:42:21;12.48;;;8.00;;
43670;SDS011;29267;50.906;7.248;2022-08-21T05:44:46;22.17;;;8.55;;
43670;SDS011;29267;50.906;7.248;2022-08-21T05:47:13;13.98;;;8.45;;
43670;SDS011;29267;50.906;7.248;2022-08-21T05:49:38;13.63;;;8.05;;
43670;SDS011;29267;50.906;7.248;2022-08-21T05:52:04;13.75;;;8.13;;
43670;SDS011;29267;50.906;7.248;2022-08-21T05:54:30;14.20;;;9.02;;
43670;SDS011;29267;50.906;7.248;2022-08-21T05:56:56;14.05;;;8.55;;
43670;SDS011;29267;50.906;7.248;2022-08-21T05:59:22;14.30;;;8.93;;
43670;SDS011;29267;50.906;7.248;2022-08-21T06:01:48;13.38;;;8.85;;
43670;SDS011;29267;50.906;7.248;2022-08-21T06:04:16;20.25;;;8.45;;
43670;SDS011;29267;50.906;7.248;2022-08-21T06:06:41;12.82;;;9.18;;
43670;SDS011;29267;50.906;7.248;2022-08-21T06:09:07;15.50;;;8.35;;
43670;SDS011;29267;50.906;7.248;2022-08-21T06:11:33;9.75;;;7.50;;
43670;SDS011;29267;50.906;7.248;2022-08-21T06:13:59;16.92;;;8.13;;
43670;SDS011;29267;50.906;7.248;2022-08-21T06:16:26;21.10;;;8.07;;
43670;SDS011;29267;50.906;7.248;2022-08-21T06:18:52;12.05;;;7.80;;
43670;SDS011;29267;50.906;7.248;2022-08-21T06:21:20;15.07;;;8.63;;
43670;SDS011;29267;50.906;7.248;2022-08-21T06:23:46;13.25;;;8.50;;
43670;SDS011;29267;50.906;7.248;2022-08-21T06:26:13;14.95;;;8.65;;
43670;SDS011;29267;50.906;7.248;2022-08-21T06:28:39;13.18;;;8.40;;
43670;SDS011;29267;50.906;7.248;2022-08-21T06:31:13;17.42;;;8.25;;
43670;SDS011;29267;50.906;7.248;2022-08-21T06:33:42;13.98;;;8.93;;
43670;SDS011;29267;50.906;7.248;2022-08-21T06:36:08;13.80;;;8.25;;
43670;SDS011;29267;50.906;7.248;2022-08-21T06:38:34;23.23;;;8.75;;
43670;SDS011;29267;50.906;7.248;2022-08-21T06:41:01;14.98;;;8.63;;
43670;SDS011;29267;50.906;7.248;2022-08-21T06:43:27;13.95;;;8.93;;
43670;SDS011;29267;50.906;7.248;2022-08-21T06:45:53;18.33;;;10.18;;
43670;SDS011;29267;50.906;7.248;2022-08-21T06:48:19;16.75;;;9.90;;
43670;SDS011;29267;50.906;7.248;2022-08-21T06:50:46;19.20;;;11.40;;
43670;SDS011;29267;50.906;7.248;2022-08-21T06:53:13;18.45;;;10.32;;
43670;SDS011;29267;50.906;7.248;2022-08-21T06:55:41;18.60;;;10.10;;
43670;SDS011;29267;50.906;7.248;2022-08-21T06:58:07;22.38;;;10.45;;
43670;SDS011;29267;50.906;7.248;2022-08-21T07:00:34;14.82;;;10.40;;
43670;SDS011;29267;50.906;7.248;2022-08-21T07:03:00;17.60;;;9.70;;
43670;SDS011;29267;50.906;7.248;2022-08-21T07:05:27;17.50;;;10.02;;
43670;SDS011;29267;50.906;7.248;2022-08-21T07:07:55;16.58;;;10.10;;
43670;SDS011;29267;50.906;7.248;2022-08-21T07:10:21;18.65;;;10.02;;
43670;SDS011;29267;50.906;7.248;2022-08-21T07:12:49;14.02;;;9.95;;
43670;SDS011;29267;50.906;7.248;2022-08-21T07:15:16;16.20;;;9.77;;
43670;SDS011;29267;50.906;7.248;2022-08-21T07:17:42;17.75;;;10.23;;
43670;SDS011;29267;50.906;7.248;2022-08-21T07:20:08;20.02;;;10.25;;
43670;SDS011;29267;50.906;7.248;2022-08-21T07:22:35;17.05;;;9.38;;
43670;SDS011;29267;50.906;7.248;2022-08-21T07:25:02;25.48;;;8.98;;
43670;SDS011;29267;50.906;7.248;2022-08-21T07:27:29;21.10;;;8.90;;
43670;SDS011;29267;50.906;7.248;2022-08-21T07:29:56;20.65;;;8.95;;
43670;SDS011;29267;50.906;7.248;2022-08-21T07:32:22;19.33;;;10.43;;
43670;SDS011;29267;50.906;7.248;2022-08-21T07:34:48;15.38;;;9.00;;
43670;SDS011;29267;50.906;7.248;2022-08-21T07:37:14;14.30;;;8.55;;
43670;SDS011;29267;50.906;7.248;2022-08-21T07:39:40;17.23;;;8.10;;
43670;SDS011;29267;50.906;7.248;2022-08-21T07:42:06;14.40;;;9.02;;
43670;SDS011;29267;50.906;7.248;2022-08-21T07:44:33;16.00;;;7.30;;
43670;SDS011;29267;50.906;7.248;2022-08-21T07:47:00;14.88;;;7.65;;
43670;SDS011;29267;50.906;7.248;2022-08-21T07:49:26;13.50;;;7.63;;
43670;SDS011;29267;50.906;7.248;2022-08-21T07:51:52;15.35;;;7.35;;
43670;SDS011;29267;50.906;7.248;2022-08-21T07:54:18;18.77;;;8.20;;
43670;SDS011;29267;50.906;7.248;2022-08-21T07:56:44;14.73;;;6.82;;
43670;SDS011;29267;50.906;7.248;2022-08-21T07:59:10;15.80;;;7.90;;
43670;SDS011;29267;50.906;7.248;2022-08-21T08:01:37;15.48;;;7.22;;
43670;SDS011;29267;50.906;7.248;2022-08-21T08:04:03;13.70;;;7.03;;
43670;SDS011;29267;50.906;7.248;2022-08-21T08:06:29;15.30;;;7.43;;
43670;SDS011;29267;50.906;7.248;2022-08-21T08:08:55;16.08;;;6.72;;
43670;SDS011;29267;50.906;7.248;2022-08-21T08:11:21;16.25;;;7.65;;
43670;SDS011;29267;50.906;7.248;2022-08-21T08:13:49;17.05;;;7.00;;
43670;SDS011;29267;50.906;7.248;2022-08-21T08:16:16;15.15;;;6.70;;
43670;SDS011;29267;50.906;7.248;2022-08-21T08:18:42;12.48;;;7.00;;
43670;SDS011;29267;50.906;7.248;2022-08-21T08:21:10;19.02;;;6.93;;
43670;SDS011;29267;50.906;7.248;2022-08-21T08:23:37;14.85;;;6.13;;
43670;SDS011;29267;50.906;7.248;2022-08-21T08:26:04;17.80;;;6.30;;
43670;SDS011;29267;50.906;7.248;2022-08-21T08:28:31;9.63;;;4.10;;
43670;SDS011;29267;50.906;7.248;2022-08-21T08:30:58;18.85;;;4.55;;
43670;SDS011;29267;50.906;7.248;2022-08-21T08:33:25;10.90;;;4.68;;
43670;SDS011;29267;50.906;7.248;2022-08-21T08:35:52;7.82;;;3.97;;
43670;SDS011;29267;50.906;7.248;2022-08-21T08:38:19;11.65;;;4.45;;
43670;SDS011;29267;50.906;7.248;2022-08-21T08:43:25;8.70;;;4.07;;
43670;SDS011;29267;50.906;7.248;2022-08-21T08:45:52;14.73;;;4.20;;
43670;SDS011;29267;50.906;7.248;2022-08-21T08:48:31;11.70;;;4.13;;
43670;SDS011;29267;50.906;7.248;2022-08-21T08:51:21;12.90;;;4.40;;
43670;SDS011;29267;50.906;7.248;2022-08-21T08:53:57;9.18;;;3.47;;
43670;SDS011;29267;50.906;7.248;2022-08-21T08:56:29;10.35;;;3.45;;
43670;SDS011;29267;50.906;7.248;2022-08-21T08:58:59;17.77;;;4.38;;
43670;SDS011;29267;50.906;7.248;2022-08-21T09:01:32;14.75;;;3.53;;
43670;SDS011;29267;50.906;7.248;2022-08-21T09:03:58;16.20;;;4.95;;
43670;SDS011;29267;50.906;7.248;2022-08-21T09:09:11;13.07;;;3.78;;
43670;SDS011;29267;50.906;7.248;2022-08-21T09:11:57;12.25;;;4.22;;
43670;SDS011;29267;50.906;7.248;2022-08-21T09:25:11;9.60;;;3.78;;
43670;SDS011;29267;50.906;7.248;2022-08-21T09:27:43;12.75;;;4.60;;
43670;SDS011;29267;50.906;7.248;2022-08-21T09:30:09;9.63;;;3.50;;
43670;SDS011;29267;50.906;7.248;2022-08-21T09:32:37;5.97;;;2.58;;
43670;SDS011;29267;50.906;7.248;2022-08-21T09:37:33;8.15;;;2.92;;
43670;SDS011;29267;50.906;7.248;2022-08-21T09:40:30;10.88;;;3.05;;
43670;SDS011;29267;50.906;7.248;2022-08-21T09:43:20;11.88;;;3.00;;
43670;SDS011;29267;50.906;7.248;2022-08-21T09:46:01;12.80;;;4.15;;
43670;SDS011;29267;50.906;7.248;2022-08-21T09:48:29;12.88;;;3.60;;
43670;SDS011;29267;50.906;7.248;2022-08-21T09:51:09;12.35;;;3.65;;
43670;SDS011;29267;50.906;7.248;2022-08-21T09:53:43;11.27;;;3.83;;
43670;SDS011;29267;50.906;7.248;2022-08-21T09:56:17;9.50;;;3.45;;
43670;SDS011;29267;50.906;7.248;2022-08-21T10:01:46;10.23;;;3.42;;
43670;SDS011;29267;50.906;7.248;2022-08-21T10:04:20;11.25;;;3.13;;
43670;SDS011;29267;50.906;7.248;2022-08-21T10:06:53;13.55;;;3.50;;
43670;SDS011;29267;50.906;7.248;2022-08-21T10:09:19;8.82;;;3.78;;
43670;SDS011;29267;50.906;7.248;2022-08-21T10:12:33;10.18;;;2.80;;
43670;SDS011;29267;50.906;7.248;2022-08-21T10:20:22;13.10;;;3.08;;
43670;SDS011;29267;50.906;7.248;2022-08-21T10:23:02;10.30;;;3.25;;
43670;SDS011;29267;50.906;7.248;2022-08-21T10:25:57;9.00;;;2.58;;
43670;SDS011;29267;50.906;7.248;2022-08-21T10:28:33;8.93;;;3.10;;
43670;SDS011;29267;50.906;7.248;2022-08-21T10:40:15;12.10;;;3.00;;
43670;SDS011;29267;50.906;7.248;2022-08-21T10:45:12;8.77;;;3.03;;
43670;SDS011;29267;50.906;7.248;2022-08-21T10:48:02;9.82;;;2.65;;
43670;SDS011;29267;50.906;7.248;2022-08-21T10:55:44;7.30;;;2.33;;
43670;SDS011;29267;50.906;7.248;2022-08-21T10:58:31;6.90;;;2.67;;
43670;SDS011;29267;50.906;7.248;2022-08-21T11:01:24;8.75;;;3.00;;
43670;SDS011;29267;50.906;7.248;2022-08-21T11:09:20;5.22;;;2.70;;
43670;SDS011;29267;50.906;7.248;2022-08-21T11:11:59;8.68;;;3.40;;
43670;SDS011;29267;50.906;7.248;2022-08-21T11:14:34;9.95;;;3.22;;
43670;SDS011;29267;50.906;7.248;2022-08-21T11:17:19;8.45;;;3.50;;
43670;SDS011;29267;50.906;7.248;2022-08-21T11:23:11;10.82;;;3.78;;
43670;SDS011;29267;50.906;7.248;2022-08-21T11:25:44;12.17;;;3.47;;
43670;SDS011;29267;50.906;7.248;2022-08-21T11:28:22;11.10;;;3.58;;
43670;SDS011;29267;50.906;7.248;2022-08-21T11:36:21;10.10;;;4.13;;
43670;SDS011;29267;50.906;7.248;2022-08-21T11:57:30;6.35;;;3.08;;
43670;SDS011;29267;50.906;7.248;2022-08-21T12:02:35;6.88;;;3.35;;
43670;SDS011;29267;50.906;7.248;2022-08-21T12:05:08;5.85;;;3.20;;
43670;SDS011;29267;50.906;7.248;2022-08-21T12:07:46;5.40;;;3.00;;
43670;SDS011;29267;50.906;7.248;2022-08-21T12:10:14;6.40;;;3.50;;
43670;SDS011;29267;50.906;7.248;2022-08-21T12:12:46;7.10;;;4.32;;
43670;SDS011;29267;50.906;7.248;2022-08-21T12:17:53;8.57;;;3.58;;
43670;SDS011;29267;50.906;7.248;2022-08-21T12:23:12;6.18;;;3.50;;
43670;SDS011;29267;50.906;7.248;2022-08-21T12:28:42;6.45;;;3.53;;
43670;SDS011;29267;50.906;7.248;2022-08-21T12:31:22;8.38;;;3.10;;
43670;SDS011;29267;50.906;7.248;2022-08-21T12:33:51;6.53;;;3.15;;
43670;SDS011;29267;50.906;7.248;2022-08-21T12:36:24;6.03;;;3.33;;
43670;SDS011;29267;50.906;7.248;2022-08-21T12:39:03;4.63;;;3.20;;
43670;SDS011;29267;50.906;7.248;2022-08-21T12:41:47;6.47;;;3.47;;
43670;SDS011;29267;50.906;7.248;2022-08-21T12:44:17;4.97;;;2.85;;
43670;SDS011;29267;50.906;7.248;2022-08-21T12:46:57;6.35;;;4.25;;
43670;SDS011;29267;50.906;7.248;2022-08-21T12:54:49;6.07;;;3.20;;
43670;SDS011;29267;50.906;7.248;2022-08-21T12:57:23;6.28;;;3.03;;
43670;SDS011;29267;50.906;7.248;2022-08-21T12:59:55;6.65;;;3.13;;
43670;SDS011;29267;50.906;7.248;2022-08-21T13:02:33;7.70;;;3.38;;
43670;SDS011;29267;50.906;7.248;2022-08-21T13:05:05;4.07;;;2.80;;
43670;SDS011;29267;50.906;7.248;2022-08-21T13:07:35;6.25;;;3.60;;
43670;SDS011;29267;50.906;7.248;2022-08-21T13:10:06;6.20;;;3.08;;
43670;SDS011;29267;50.906;7.248;2022-08-21T13:12:49;10.52;;;3.80;;
43670;SDS011;29267;50.906;7.248;2022-08-21T13:15:21;5.80;;;3.88;;
43670;SDS011;29267;50.906;7.248;2022-08-21T13:17:56;6.18;;;3.30;;
43670;SDS011;29267;50.906;7.248;2022-08-21T13:20:31;5.28;;;2.70;;
43670;SDS011;29267;50.906;7.248;2022-08-21T13:23:00;4.57;;;2.90;;
43670;SDS011;29267;50.906;7.248;2022-08-21T13:25:29;5.75;;;2.53;;
43670;SDS011;29267;50.906;7.248;2022-08-21T13:30:27;5.97;;;3.17;;
43670;SDS011;29267;50.906;7.248;2022-08-21T13:32:58;4.18;;;2.42;;
43670;SDS011;29267;50.906;7.248;2022-08-21T13:37:53;5.82;;;3.17;;
43670;SDS011;29267;50.906;7.248;2022-08-21T13:40:23;9.75;;;2.90;;
43670;SDS011;29267;50.906;7.248;2022-08-21T13:42:52;6.82;;;3.10;;
43670;SDS011;29267;50.906;7.248;2022-08-21T13:45:27;4.82;;;3.03;;
43670;SDS011;29267;50.906;7.248;2022-08-21T13:47:57;5.57;;;3.08;;
43670;SDS011;29267;50.906;7.248;2022-08-21T13:50:25;3.72;;;2.70;;
43670;SDS011;29267;50.906;7.248;2022-08-21T13:53:02;5.35;;;2.90;;
43670;SDS011;29267;50.906;7.248;2022-08-21T13:55:40;4.95;;;3.00;;
43670;SDS011;29267;50.906;7.248;2022-08-21T13:58:09;11.45;;;4.88;;
43670;SDS011;29267;50.906;7.248;2022-08-21T14:00:46;5.65;;;2.72;;
43670;SDS011;29267;50.906;7.248;2022-08-21T14:05:58;5.05;;;2.65;;
43670;SDS011;29267;50.906;7.248;2022-08-21T14:08:35;5.30;;;2.90;;
43670;SDS011;29267;50.906;7.248;2022-08-21T14:11:05;6.15;;;3.80;;
43670;SDS011;29267;50.906;7.248;2022-08-21T14:13:38;4.57;;;2.55;;
43670;SDS011;29267;50.906;7.248;2022-08-21T14:16:15;4.30;;;2.63;;
43670;SDS011;29267;50.906;7.248;2022-08-21T14:18:54;6.00;;;3.47;;
43670;SDS011;29267;50.906;7.248;2022-08-21T14:21:35;5.25;;;3.05;;
43670;SDS011;29267;50.906;7.248;2022-08-21T14:24:11;5.93;;;2.88;;
43670;SDS011;29267;50.906;7.248;2022-08-21T14:26:50;4.82;;;2.65;;
43670;SDS011;29267;50.906;7.248;2022-08-21T14:29:26;6.07;;;2.95;;
43670;SDS011;29267;50.906;7.248;2022-08-21T14:31:54;4.40;;;2.35;;
43670;SDS011;29267;50.906;7.248;2022-08-21T14:34:26;6.55;;;2.53;;
43670;SDS011;29267;50.906;7.248;2022-08-21T14:36:54;5.80;;;2.63;;
43670;SDS011;29267;50.906;7.248;2022-08-21T14:39:20;6.35;;;2.75;;
43670;SDS011;29267;50.906;7.248;2022-08-21T14:41:46;8.38;;;3.03;;
43670;SDS011;29267;50.906;7.248;2022-08-21T14:44:14;5.35;;;2.08;;
43670;SDS011;29267;50.906;7.248;2022-08-21T14:46:41;5.65;;;2.20;;
43670;SDS011;29267;50.906;7.248;2022-08-21T14:49:07;7.22;;;2.58;;
43670;SDS011;29267;50.906;7.248;2022-08-21T14:51:33;3.85;;;2.00;;
43670;SDS011;29267;50.906;7.248;2022-08-21T14:53:59;4.78;;;1.90;;
43670;SDS011;29267;50.906;7.248;2022-08-21T14:56:25;3.30;;;1.77;;
43670;SDS011;29267;50.906;7.248;2022-08-21T14:58:51;3.78;;;2.13;;
43670;SDS011;29267;50.906;7.248;2022-08-21T15:01:18;5.50;;;2.28;;
43670;SDS011;29267;50.906;7.248;2022-08-21T15:03:46;3.05;;;1.85;;
43670;SDS011;29267;50.906;7.248;2022-08-21T15:06:13;4.55;;;2.00;;
43670;SDS011;29267;50.906;7.248;2022-08-21T15:08:41;4.07;;;1.80;;
43670;SDS011;29267;50.906;7.248;2022-08-21T15:11:07;2.75;;;1.95;;
43670;SDS011;29267;50.906;7.248;2022-08-21T15:13:36;3.65;;;2.15;;
43670;SDS011;29267;50.906;7.248;2022-08-21T15:16:02;2.17;;;1.60;;
43670;SDS011;29267;50.906;7.248;2022-08-21T15:18:29;4.68;;;2.13;;
43670;SDS011;29267;50.906;7.248;2022-08-21T15:20:55;4.35;;;2.33;;
43670;SDS011;29267;50.906;7.248;2022-08-21T15:23:22;4.00;;;2.15;;
43670;SDS011;29267;50.906;7.248;2022-08-21T15:25:48;3.83;;;2.03;;
43670;SDS011;29267;50.906;7.248;2022-08-21T15:28:15;3.85;;;2.67;;
43670;SDS011;29267;50.906;7.248;2022-08-21T15:30:42;6.20;;;2.17;;
43670;SDS011;29267;50.906;7.248;2022-08-21T15:33:10;4.70;;;1.77;;
43670;SDS011;29267;50.906;7.248;2022-08-21T15:35:36;6.25;;;2.85;;
43670;SDS011;29267;50.906;7.248;2022-08-21T15:38:02;5.35;;;2.13;;
43670;SDS011;29267;50.906;7.248;2022-08-21T15:40:29;3.20;;;2.00;;
43670;SDS011;29267;50.906;7.248;2022-08-21T15:42:56;3.97;;;1.60;;
43670;SDS011;29267;50.906;7.248;2022-08-21T15:45:25;2.70;;;1.85;;
43670;SDS011;29267;50.906;7.248;2022-08-21T15:47:51;5.88;;;2.33;;
43670;SDS011;29267;50.906;7.248;2022-08-21T15:50:17;4.05;;;2.28;;
43670;SDS011;29267;50.906;7.248;2022-08-21T15:52:44;8.50;;;2.50;;
43670;SDS011;29267;50.906;7.248;2022-08-21T15:55:10;4.82;;;2.28;;
43670;SDS011;29267;50.906;7.248;2022-08-21T15:57:36;4.25;;;2.30;;
43670;SDS011;29267;50.906;7.248;2022-08-21T16:00:12;3.83;;;1.95;;
43670;SDS011;29267;50.906;7.248;2022-08-21T16:02:40;3.00;;;1.92;;
43670;SDS011;29267;50.906;7.248;2022-08-21T16:05:09;7.82;;;2.28;;
43670;SDS011;29267;50.906;7.248;2022-08-21T16:07:36;5.28;;;2.20;;
43670;SDS011;29267;50.906;7.248;2022-08-21T16:10:03;3.47;;;2.08;;
43670;SDS011;29267;50.906;7.248;2022-08-21T16:12:32;4.10;;;2.30;;
43670;SDS011;29267;50.906;7.248;2022-08-21T16:15:03;6.40;;;2.30;;
43670;SDS011;29267;50.906;7.248;2022-08-21T16:17:33;4.35;;;2.38;;
43670;SDS011;29267;50.906;7.248;2022-08-21T16:20:01;4.75;;;2.20;;
43670;SDS011;29267;50.906;7.248;2022-08-21T16:22:29;5.30;;;2.25;;
43670;SDS011;29267;50.906;7.248;2022-08-21T16:24:55;5.30;;;2.10;;
43670;SDS011;29267;50.906;7.248;2022-08-21T16:27:21;4.68;;;2.35;;
43670;SDS011;29267;50.906;7.248;2022-08-21T16:29:47;9.57;;;2.42;;
43670;SDS011;29267;50.906;7.248;2022-08-21T16:32:14;6.82;;;2.55;;